Cosmin + Cosmina 1 — YP2605 — position and weather

sailwx.info

Track history (hours):
 
Tides and Currents Weather Stations Pressure Air Temp Water Temp Dewpoint Dewpoint Depression Visibility Wind Speed Wind Dir Waves Ship Positions

Cosmin + Cosmina 1

Last reported at 2017-Dec-04 10:04 UTC. Time now 2017-Dec-17 10:14 UTC.
Position N 44°09' E 028°39'.
Warning: this ship's position is 13 days out of date.

Length 82 m; draft 2 m.

MMSI: 264162605.

Date/timePositionNaut miles runAvg speedWind from/ knotsBaromVisibWave heightAir tempDewpointWater temp
2017-Dec-04 10:04N 44°09' E 028°39'0 0.0
2017-Dec-04 09:58N 44°09' E 028°39'0 0.0
2017-Dec-04 09:28N 44°09' E 028°39'0 0.0
2017-Dec-04 08:58N 44°09' E 028°39'0 0.0
2017-Dec-04 08:28N 44°09' E 028°39'0 0.0
2017-Dec-04 07:58N 44°09' E 028°39'0 0.0
2017-Dec-04 07:27N 44°09' E 028°39'0 0.0
2017-Dec-04 06:57N 44°09' E 028°39'0 0.0
2017-Dec-04 06:30N 44°09' E 028°39'0 0.0
2017-Dec-04 06:00N 44°09' E 028°39'0 0.0
2017-Dec-04 05:27N 44°09' E 028°39'0 0.0
2017-Dec-04 05:00N 44°09' E 028°39'0 0.0
2017-Dec-04 04:30N 44°09' E 028°39'0 0.0
2017-Dec-04 04:00N 44°09' E 028°39'0 0.0
2017-Dec-04 03:30N 44°09' E 028°39'0 0.0
2017-Dec-04 03:00N 44°09' E 028°39'0 0.0
2017-Dec-04 02:30N 44°09' E 028°39'0 0.0
2017-Dec-04 02:00N 44°09' E 028°39'0 0.0
2017-Dec-04 01:30N 44°09' E 028°39'0 0.0
2017-Dec-04 01:00N 44°09' E 028°39'0 0.0
2017-Dec-04 00:30N 44°09' E 028°39'0 0.0
2017-Dec-04 00:00N 44°09' E 028°39'0 0.0
2017-Dec-03 23:30N 44°09' E 028°39'0 0.0
2017-Dec-03 23:00N 44°09' E 028°39'0 0.0
2017-Dec-03 22:30N 44°09' E 028°39'0 0.0
2017-Dec-03 22:00N 44°09' E 028°39'0 0.0
2017-Dec-03 21:30N 44°09' E 028°39'0 0.0
2017-Dec-03 21:00N 44°09' E 028°39'0 0.0
2017-Dec-03 20:27N 44°09' E 028°39'0 0.0
2017-Dec-03 20:00N 44°09' E 028°39'0 0.0
2017-Dec-03 19:30N 44°09' E 028°39'0 0.0
2017-Dec-03 19:00N 44°09' E 028°39'0 0.0
2017-Dec-03 18:27N 44°09' E 028°39'0 0.0
2017-Dec-03 18:00N 44°09' E 028°39'0 0.0
2017-Dec-03 17:30N 44°09' E 028°39'0 0.0
2017-Dec-03 17:00N 44°09' E 028°39'0 0.0
2017-Dec-03 16:30N 44°09' E 028°39'0 0.0
2017-Dec-03 16:00N 44°09' E 028°39'0 0.0
2017-Dec-03 15:30N 44°09' E 028°39'0 0.0
2017-Dec-03 15:00N 44°09' E 028°39'0 0.0
2017-Dec-03 14:30N 44°09' E 028°39'1 2.1
2017-Dec-03 14:00N 44°09' E 028°40'2 3.2
2017-Dec-03 13:30N 44°07' E 028°39'0 0.0
2017-Dec-03 13:00N 44°07' E 028°39'0 0.0
2017-Dec-03 12:30N 44°07' E 028°39'0 0.0
2017-Dec-03 12:00N 44°07' E 028°39'0 0.0
2017-Dec-03 11:30N 44°07' E 028°39'0 0.0
2017-Dec-03 11:00N 44°07' E 028°39'0 0.0
2017-Dec-03 10:30N 44°07' E 028°39'0 0.0
2017-Dec-03 10:00N 44°07' E 028°39'0 0.0
2017-Dec-03 09:31N 44°07' E 028°39'1 2.3
2017-Dec-03 09:01N 44°06' E 028°39'1 1.9
2017-Dec-03 08:31N 44°06' E 028°37'1 1.6
2017-Dec-03 08:01N 44°06' E 028°36'1 2.3
2017-Dec-03 07:30N 44°06' E 028°35'2 3.1
2017-Dec-03 07:01N 44°06' E 028°32'4 3.9
2017-Dec-03 05:56N 44°07' E 028°27'2 4.3
2017-Dec-03 05:26N 44°09' E 028°26'2 4.2
2017-Dec-03 05:00N 44°10' E 028°24'1 1.3
2017-Dec-03 04:30N 44°11' E 028°24'0 0.0
2017-Dec-03 04:00N 44°11' E 028°24'0 0.0
2017-Dec-03 03:30N 44°11' E 028°24'0 0.0
2017-Dec-03 02:57N 44°11' E 028°24'0 0.0
2017-Dec-03 02:27N 44°11' E 028°24'0 0.0
2017-Dec-03 01:57N 44°11' E 028°24'0 0.0
2017-Dec-03 01:27N 44°11' E 028°24'0 0.0
2017-Dec-03 00:57N 44°11' E 028°24'0 0.0
2017-Dec-03 00:30N 44°11' E 028°24'0 0.0
2017-Dec-03 00:00N 44°11' E 028°24'0 0.0
2017-Dec-02 23:30N 44°11' E 028°24'0 0.0
2017-Dec-02 23:00N 44°11' E 028°24'0 0.0
2017-Dec-02 22:27N 44°11' E 028°24'0 0.0
2017-Dec-02 21:57N 44°11' E 028°24'0 0.0
2017-Dec-02 21:27N 44°11' E 028°24'0 0.0
2017-Dec-02 21:00N 44°11' E 028°24'0 0.0
2017-Dec-02 20:27N 44°11' E 028°24'0 0.0
2017-Dec-02 20:00N 44°11' E 028°24'0 0.0
2017-Dec-02 19:27N 44°11' E 028°24'0 0.0
2017-Dec-02 19:00N 44°11' E 028°24'0 0.0
2017-Dec-02 18:30N 44°11' E 028°24'0 0.0
2017-Dec-02 17:54N 44°11' E 028°24'0 0.0
2017-Dec-02 17:30N 44°11' E 028°24'0 0.0
2017-Dec-02 16:51N 44°11' E 028°24'0 0.0
2017-Dec-02 16:27N 44°11' E 028°24'0 0.0
2017-Dec-02 16:00N 44°11' E 028°24'1 1.6
2017-Dec-02 15:28N 44°12' E 028°23'2 4.0
2017-Dec-02 15:00N 44°14' E 028°22'2 4.0
2017-Dec-02 14:30N 44°15' E 028°21'2 4.0
2017-Dec-02 14:00N 44°15' E 028°18'2 4.0
2017-Dec-02 13:30N 44°15' E 028°15'2 4.1
2017-Dec-02 13:00N 44°16' E 028°12'2 4.1
2017-Dec-02 12:30N 44°16' E 028°09'2 4.1
2017-Dec-02 12:00N 44°16' E 028°06'2 4.0
2017-Dec-02 11:25N 44°18' E 028°04'  
Track history (hours):
 
Tides and Currents Weather Stations Pressure Air Temp Water Temp Dewpoint Dewpoint Depression Visibility Wind Speed Wind Dir Waves Ship Positions

Cosmin + Cosmina 1

Last reported at 2017-Dec-04 10:04 UTC. Time now 2017-Dec-17 10:14 UTC.
Position N 44°09' E 028°39'.
Warning: this ship's position is 13 days out of date.

Length 82 m; draft 2 m.

MMSI: 264162605.

Date/timePositionNaut miles runAvg speedWind from/ knotsBaromVisibWave heightAir tempDewpointWater temp
2017-Dec-04 10:04N 44°09' E 028°39'0 0.0
2017-Dec-04 09:58N 44°09' E 028°39'0 0.0
2017-Dec-04 09:28N 44°09' E 028°39'0 0.0
2017-Dec-04 08:58N 44°09' E 028°39'0 0.0
2017-Dec-04 08:28N 44°09' E 028°39'0 0.0
2017-Dec-04 07:58N 44°09' E 028°39'0 0.0
2017-Dec-04 07:27N 44°09' E 028°39'0 0.0
2017-Dec-04 06:57N 44°09' E 028°39'0 0.0
2017-Dec-04 06:30N 44°09' E 028°39'0 0.0
2017-Dec-04 06:00N 44°09' E 028°39'0 0.0
2017-Dec-04 05:27N 44°09' E 028°39'0 0.0
2017-Dec-04 05:00N 44°09' E 028°39'0 0.0
2017-Dec-04 04:30N 44°09' E 028°39'0 0.0
2017-Dec-04 04:00N 44°09' E 028°39'0 0.0
2017-Dec-04 03:30N 44°09' E 028°39'0 0.0
2017-Dec-04 03:00N 44°09' E 028°39'0 0.0
2017-Dec-04 02:30N 44°09' E 028°39'0 0.0
2017-Dec-04 02:00N 44°09' E 028°39'0 0.0
2017-Dec-04 01:30N 44°09' E 028°39'0 0.0
2017-Dec-04 01:00N 44°09' E 028°39'0 0.0
2017-Dec-04 00:30N 44°09' E 028°39'0 0.0
2017-Dec-04 00:00N 44°09' E 028°39'0 0.0
2017-Dec-03 23:30N 44°09' E 028°39'0 0.0
2017-Dec-03 23:00N 44°09' E 028°39'0 0.0
2017-Dec-03 22:30N 44°09' E 028°39'0 0.0
2017-Dec-03 22:00N 44°09' E 028°39'0 0.0
2017-Dec-03 21:30N 44°09' E 028°39'0 0.0
2017-Dec-03 21:00N 44°09' E 028°39'0 0.0
2017-Dec-03 20:27N 44°09' E 028°39'0 0.0
2017-Dec-03 20:00N 44°09' E 028°39'0 0.0
2017-Dec-03 19:30N 44°09' E 028°39'0 0.0
2017-Dec-03 19:00N 44°09' E 028°39'0 0.0
2017-Dec-03 18:27N 44°09' E 028°39'0 0.0
2017-Dec-03 18:00N 44°09' E 028°39'0 0.0
2017-Dec-03 17:30N 44°09' E 028°39'0 0.0
2017-Dec-03 17:00N 44°09' E 028°39'0 0.0
2017-Dec-03 16:30N 44°09' E 028°39'0 0.0
2017-Dec-03 16:00N 44°09' E 028°39'0 0.0
2017-Dec-03 15:30N 44°09' E 028°39'0 0.0
2017-Dec-03 15:00N 44°09' E 028°39'0 0.0
2017-Dec-03 14:30N 44°09' E 028°39'1 2.1
2017-Dec-03 14:00N 44°09' E 028°40'2 3.2
2017-Dec-03 13:30N 44°07' E 028°39'0 0.0
2017-Dec-03 13:00N 44°07' E 028°39'0 0.0
2017-Dec-03 12:30N 44°07' E 028°39'0 0.0
2017-Dec-03 12:00N 44°07' E 028°39'0 0.0
2017-Dec-03 11:30N 44°07' E 028°39'0 0.0
2017-Dec-03 11:00N 44°07' E 028°39'0 0.0
2017-Dec-03 10:30N 44°07' E 028°39'0 0.0
2017-Dec-03 10:00N 44°07' E 028°39'0 0.0
2017-Dec-03 09:31N 44°07' E 028°39'1 2.3
2017-Dec-03 09:01N 44°06' E 028°39'1 1.9
2017-Dec-03 08:31N 44°06' E 028°37'1 1.6
2017-Dec-03 08:01N 44°06' E 028°36'1 2.3
2017-Dec-03 07:30N 44°06' E 028°35'2 3.1
2017-Dec-03 07:01N 44°06' E 028°32'4 3.9
2017-Dec-03 05:56N 44°07' E 028°27'2 4.3
2017-Dec-03 05:26N 44°09' E 028°26'2 4.2
2017-Dec-03 05:00N 44°10' E 028°24'1 1.3
2017-Dec-03 04:30N 44°11' E 028°24'0 0.0
2017-Dec-03 04:00N 44°11' E 028°24'0 0.0
2017-Dec-03 03:30N 44°11' E 028°24'0 0.0
2017-Dec-03 02:57N 44°11' E 028°24'0 0.0
2017-Dec-03 02:27N 44°11' E 028°24'0 0.0
2017-Dec-03 01:57N 44°11' E 028°24'0 0.0
2017-Dec-03 01:27N 44°11' E 028°24'0 0.0
2017-Dec-03 00:57N 44°11' E 028°24'0 0.0
2017-Dec-03 00:30N 44°11' E 028°24'0 0.0
2017-Dec-03 00:00N 44°11' E 028°24'0 0.0
2017-Dec-02 23:30N 44°11' E 028°24'0 0.0
2017-Dec-02 23:00N 44°11' E 028°24'0 0.0
2017-Dec-02 22:27N 44°11' E 028°24'0 0.0
2017-Dec-02 21:57N 44°11' E 028°24'0 0.0
2017-Dec-02 21:27N 44°11' E 028°24'0 0.0
2017-Dec-02 21:00N 44°11' E 028°24'0 0.0
2017-Dec-02 20:27N 44°11' E 028°24'0 0.0
2017-Dec-02 20:00N 44°11' E 028°24'0 0.0
2017-Dec-02 19:27N 44°11' E 028°24'0 0.0
2017-Dec-02 19:00N 44°11' E 028°24'0 0.0
2017-Dec-02 18:30N 44°11' E 028°24'0 0.0
2017-Dec-02 17:54N 44°11' E 028°24'0 0.0
2017-Dec-02 17:30N 44°11' E 028°24'0 0.0
2017-Dec-02 16:51N 44°11' E 028°24'0 0.0
2017-Dec-02 16:27N 44°11' E 028°24'0 0.0
2017-Dec-02 16:00N 44°11' E 028°24'1 1.6
2017-Dec-02 15:28N 44°12' E 028°23'2 4.0
2017-Dec-02 15:00N 44°14' E 028°22'2 4.0
2017-Dec-02 14:30N 44°15' E 028°21'2 4.0
2017-Dec-02 14:00N 44°15' E 028°18'2 4.0
2017-Dec-02 13:30N 44°15' E 028°15'2 4.1
2017-Dec-02 13:00N 44°16' E 028°12'2 4.1
2017-Dec-02 12:30N 44°16' E 028°09'2 4.1
2017-Dec-02 12:00N 44°16' E 028°06'2 4.0
2017-Dec-02 11:25N 44°18' E 028°04'  

Dump ship's entire track history